Time;durP1;ratioP1;P1;durP2;ratioP2;P2;SDS_P1;SDS_P2;PMS_P1;PMS_P2;Temp;Humidity;BMP_temperature;BMP_pressure;BME280_temperature;BME280_humidity;BME280_pressure;Samples;Min_cycle;Max_cycle;Signal;HPM_P1;HPM_P2
2021/03/21 00:00:08;;;;;;;;;;;;;;;29.62;19.61;101044.41;5087423;28;1002;-44
2021/03/21 00:02:33;;;;;;;;;;;;;;;29.59;19.70;101045.66;5077486;28;886;-41
2021/03/21 00:04:59;;;;;;;;;;;;;;;28.94;20.84;101039.03;5077855;28;1957;-42
2021/03/21 00:07:24;;;;;;;;;;;;;;;29.41;20.14;101040.63;5078004;28;850;-41
2021/03/21 00:09:49;;;;;;;;;;;;;;;29.61;19.90;101040.03;5085586;28;968;-43
2021/03/21 00:12:14;;;;;;;;;;;;;;;29.66;19.54;101037.59;5098397;28;731;-40
2021/03/21 00:14:40;;;;;;;;;;;;;;;29.63;19.41;101035.25;5098092;28;1167;-41
2021/03/21 00:17:05;;;;;;;;;;;;;;;29.23;20.28;101032.94;5097730;28;840;-40
2021/03/21 00:19:30;;;;;;;;;;;;;;;29.51;20.26;101038.44;5097736;28;823;-41
2021/03/21 00:21:56;;;;;;;;;;;;;;;29.68;19.93;101036.34;5097946;28;819;-41
2021/03/21 00:24:21;;;;;;;;;;;;;;;29.64;19.71;101029.66;5079485;28;1975;-41
2021/03/21 00:26:46;;;;;;;;;;;;;;;29.53;20.00;101022.81;5098197;28;775;-40
2021/03/21 00:29:12;;;;;;;;;;;;;;;29.17;20.69;101018.25;5094717;28;935;-41
2021/03/21 00:31:37;;;;;;;;;;;;;;;29.56;20.30;101014.28;5076899;28;1086;-41
2021/03/21 00:34:02;;;;;;;;;;;;;;;29.74;20.04;101023.91;5077440;28;1469;-41
2021/03/21 00:36:28;;;;;;;;;;;;;;;29.78;19.54;101027.06;5077630;28;827;-42
2021/03/21 00:38:53;;;;;;;;;;;;;;;29.56;19.76;101025.13;5077211;28;759;-41
2021/03/21 00:41:23;;;;;;;;;;;;;;;29.12;20.71;101020.69;5076788;28;835;-41
2021/03/21 00:43:50;;;;;;;;;;;;;;;29.49;20.54;101016.13;5077700;28;1910;-40
2021/03/21 00:46:15;;;;;;;;;;;;;;;29.73;19.84;101014.06;5096729;28;971;-39
2021/03/21 00:48:41;;;;;;;;;;;;;;;29.75;19.76;101009.28;5097502;28;813;-41
2021/03/21 00:51:07;;;;;;;;;;;;;;;29.61;19.75;101016.47;5097549;28;787;-40
2021/03/21 00:53:32;;;;;;;;;;;;;;;29.15;20.90;101028.44;5096861;28;732;-40
2021/03/21 00:55:57;;;;;;;;;;;;;;;29.53;20.36;101030.13;5098008;28;819;-40
2021/03/21 00:58:23;;;;;;;;;;;;;;;29.78;20.01;101033.31;5096745;28;918;-42
2021/03/21 01:00:52;;;;;;;;;;;;;;;29.74;19.83;101034.75;5080268;28;1006;-42
2021/03/21 01:03:17;;;;;;;;;;;;;;;29.61;19.97;101032.75;5076883;28;1906;-41
2021/03/21 01:05:46;;;;;;;;;;;;;;;29.11;20.86;101032.56;5076491;28;768;-41
2021/03/21 01:08:31;;;;;;;;;;;;;;;29.61;20.44;101021.91;5076691;28;735;-42
2021/03/21 01:10:58;;;;;;;;;;;;;;;29.72;20.06;101030.53;5094219;28;1186;-41
2021/03/21 01:13:23;;;;;;;;;;;;;;;29.75;19.75;101027.44;5097042;28;760;-44
2021/03/21 01:15:49;;;;;;;;;;;;;;;29.61;19.85;101021.06;5079818;28;962;-40
2021/03/21 01:18:15;;;;;;;;;;;;;;;29.32;20.49;101037.19;5077085;28;834;-39
2021/03/21 01:20:41;;;;;;;;;;;;;;;29.64;20.36;101039.63;5076477;28;820;-37
2021/03/21 01:23:06;;;;;;;;;;;;;;;29.79;20.06;101043.13;5075849;28;1964;-41
2021/03/21 01:25:31;;;;;;;;;;;;;;;29.73;19.93;101032.22;5077033;28;744;-40
2021/03/21 01:27:57;;;;;;;;;;;;;;;29.60;19.68;101024.78;5076674;28;835;-41
2021/03/21 01:30:23;;;;;;;;;;;;;;;29.27;20.89;101024.22;5088573;28;1002;-39
2021/03/21 01:32:48;;;;;;;;;;;;;;;29.62;20.29;101017.28;5096499;28;804;-38
2021/03/21 01:35:13;;;;;;;;;;;;;;;29.87;19.82;101006.91;5096882;28;754;-40
2021/03/21 01:37:39;;;;;;;;;;;;;;;29.75;19.72;101000.31;5096472;28;817;-40
2021/03/21 01:40:05;;;;;;;;;;;;;;;29.58;19.81;100987.84;5096836;28;751;-39
2021/03/21 01:42:38;;;;;;;;;;;;;;;29.51;20.28;100973.38;5096803;28;870;-39
2021/03/21 01:45:23;;;;;;;;;;;;;;;29.73;20.15;100969.88;5085812;28;1983;-38
2021/03/21 01:47:48;;;;;;;;;;;;;;;29.10;19.77;100972.13;5076377;28;1744;-41
2021/03/21 01:50:26;;;;;;;;;;;;;;;27.89;20.96;100976.69;5076054;28;854;-40
2021/03/21 01:52:51;;;;;;;;;;;;;;;27.60;21.72;100973.66;5075129;28;835;-43
2021/03/21 01:55:16;;;;;;;;;;;;;;;27.75;21.59;100966.50;5058684;28;810;-42
2021/03/21 01:57:42;;;;;;;;;;;;;;;28.68;20.47;100971.81;5058270;28;752;-39
2021/03/21 02:00:08;;;;;;;;;;;;;;;29.33;19.89;100968.41;5068049;28;1034;-42
2021/03/21 02:02:33;;;;;;;;;;;;;;;29.33;19.57;100984.66;5096383;28;879;-40
2021/03/21 02:04:58;;;;;;;;;;;;;;;28.71;20.44;100990.41;5096215;28;1906;-46
2021/03/21 02:07:23;;;;;;;;;;;;;;;29.18;20.21;100995.56;5096200;28;791;-42
2021/03/21 02:10:07;;;;;;;;;;;;;;;29.56;19.57;100997.22;5088419;28;1091;-48
2021/03/21 02:12:51;;;;;;;;;;;;;;;29.52;19.38;100980.50;5076172;28;779;-41
2021/03/21 02:15:16;;;;;;;;;;;;;;;29.00;20.33;101004.09;5075038;28;948;-38
2021/03/21 02:17:52;;;;;;;;;;;;;;;29.41;20.00;100981.84;5076188;28;792;-39
2021/03/21 02:20:17;;;;;;;;;;;;;;;29.62;19.68;100976.63;5058057;28;804;-40
2021/03/21 02:22:52;;;;;;;;;;;;;;;29.69;19.28;100964.00;5075456;28;814;-39
2021/03/21 02:25:21;;;;;;;;;;;;;;;29.56;19.34;100953.84;5058205;28;1902;-37
2021/03/21 02:27:50;;;;;;;;;;;;;;;29.30;20.12;100945.25;5076178;28;763;-38
2021/03/21 02:30:25;;;;;;;;;;;;;;;29.51;19.88;100940.03;5086873;28;963;-40
2021/03/21 02:32:58;;;;;;;;;;;;;;;29.77;19.43;100954.88;5078162;28;824;-37
2021/03/21 02:35:40;;;;;;;;;;;;;;;29.71;19.44;100967.34;5078209;28;828;-40
2021/03/21 02:38:25;;;;;;;;;;;;;;;29.51;19.67;100954.41;5077868;28;731;-38
2021/03/21 02:40:51;;;;;;;;;;;;;;;29.37;19.94;100971.56;5064462;28;1129;-41
2021/03/21 02:43:35;;;;;;;;;;;;;;;29.60;19.69;100952.44;5076911;28;1984;-42
2021/03/21 02:46:04;;;;;;;;;;;;;;;29.77;19.58;100987.41;5077260;28;959;-46
2021/03/21 02:48:30;;;;;;;;;;;;;;;29.69;19.55;100981.09;5057397;28;804;-41
2021/03/21 02:51:03;;;;;;;;;;;;;;;29.57;19.68;100980.75;5075699;28;803;-39
2021/03/21 02:53:38;;;;;;;;;;;;;;;29.03;20.39;100971.25;5075696;28;918;-45
2021/03/21 02:56:03;;;;;;;;;;;;;;;29.53;20.02;100982.16;5075304;28;843;-38
2021/03/21 02:58:32;;;;;;;;;;;;;;;29.77;19.57;100968.44;5056572;28;843;-46
2021/03/21 03:01:01;;;;;;;;;;;;;;;29.78;19.48;100978.25;5092273;28;1025;-42
2021/03/21 03:03:27;;;;;;;;;;;;;;;29.57;19.84;100952.81;5096849;28;1901;-41
2021/03/21 03:05:53;;;;;;;;;;;;;;;29.32;20.33;100988.41;5081200;28;577;-37
2021/03/21 03:08:27;;;;;;;;;;;;;;;29.60;20.08;100974.13;5081296;28;803;-39
2021/03/21 03:11:11;;;;;;;;;;;;;;;29.82;19.90;100976.81;5087932;28;1197;-42
2021/03/21 03:13:40;;;;;;;;;;;;;;;29.82;19.64;100974.09;5098889;28;836;-41
2021/03/21 03:16:08;;;;;;;;;;;;;;;29.68;19.61;100960.44;5080333;28;1002;-44
2021/03/21 03:18:37;;;;;;;;;;;;;;;29.30;20.72;100982.34;5081660;28;792;-39
2021/03/21 03:21:27;;;;;;;;;;;;;;;29.64;20.37;100996.25;5098649;28;827;-41
2021/03/21 03:23:58;;;;;;;;;;;;;;;29.78;20.05;100984.50;5080924;28;1901;-42
2021/03/21 03:26:28;;;;;;;;;;;;;;;29.81;19.91;101021.25;5081352;28;1485;-38
2021/03/21 03:29:05;;;;;;;;;;;;;;;29.68;19.76;100994.81;5098120;28;989;-41
2021/03/21 03:31:43;;;;;;;;;;;;;;;29.31;20.76;101008.44;5078526;28;1082;-40
2021/03/21 03:34:08;;;;;;;;;;;;;;;29.68;20.41;100965.84;5060879;28;831;-39
2021/03/21 03:36:34;;;;;;;;;;;;;;;29.88;20.24;100977.91;5060637;28;847;-40
2021/03/21 03:38:59;;;;;;;;;;;;;;;29.81;20.03;100967.00;5077878;28;884;-37
2021/03/21 03:41:34;;;;;;;;;;;;;;;29.60;20.03;100952.44;5078684;28;834;-39
2021/03/21 03:44:18;;;;;;;;;;;;;;;29.33;20.87;100963.00;5079094;28;1914;-39
2021/03/21 03:46:55;;;;;;;;;;;;;;;29.73;20.34;100959.84;5081228;28;763;-36
2021/03/21 03:49:40;;;;;;;;;;;;;;;29.85;20.01;100964.72;5098676;28;763;-39
2021/03/21 03:52:14;;;;;;;;;;;;;;;29.67;19.91;100966.06;5098146;28;783;-39
2021/03/21 03:54:52;;;;;;;;;;;;;;;29.41;20.42;100967.47;5098202;28;810;-40
2021/03/21 03:57:21;;;;;;;;;;;;;;;29.29;21.14;100983.38;5079692;28;1046;-43
2021/03/21 03:59:51;;;;;;;;;;;;;;;29.66;20.39;100970.63;5090610;28;942;-42
2021/03/21 04:02:29;;;;;;;;;;;;;;;29.86;20.16;100977.25;5060482;28;808;-43
2021/03/21 04:04:58;;;;;;;;;;;;;;;29.56;20.14;100984.47;5059957;28;2233;-38
2021/03/21 04:07:23;;;;;;;;;;;;;;;29.21;20.56;100989.78;5060455;28;776;-47
2021/03/21 04:09:49;;;;;;;;;;;;;;;29.59;20.43;100980.59;5085622;28;1170;-37
2021/03/21 04:12:16;;;;;;;;;;;;;;;29.78;20.17;100978.25;5097769;28;739;-39
2021/03/21 04:14:45;;;;;;;;;;;;;;;29.91;20.08;100982.94;5072397;28;912;-39
2021/03/21 04:17:18;;;;;;;;;;;;;;;29.66;20.05;100973.34;5077983;28;855;-41
2021/03/21 04:20:04;;;;;;;;;;;;;;;29.37;20.62;100995.97;5059383;28;772;-41
2021/03/21 04:22:30;;;;;;;;;;;;;;;29.64;20.46;100963.72;5077123;28;980;-35
2021/03/21 04:25:05;;;;;;;;;;;;;;;29.56;19.02;100991.78;5059734;28;1890;-42
2021/03/21 04:27:31;;;;;;;;;;;;;;;28.60;20.16;100976.31;5077317;28;882;-42
2021/03/21 04:29:58;;;;;;;;;;;;;;;28.60;20.46;101003.38;5086368;28;991;-42
2021/03/21 04:32:25;;;;;;;;;;;;;;;29.10;19.96;100988.38;5079772;28;1123;-42
2021/03/21 04:34:51;;;;;;;;;;;;;;;28.01;20.94;100996.00;5079280;28;755;-42
2021/03/21 04:37:17;;;;;;;;;;;;;;;27.65;21.25;100986.63;5079266;28;977;-42
2021/03/21 04:39:42;;;;;;;;;;;;;;;27.87;21.16;100990.38;5079532;28;1066;-40
2021/03/21 04:42:08;;;;;;;;;;;;;;;28.30;21.00;100972.72;5079120;28;758;-42
2021/03/21 04:44:42;;;;;;;;;;;;;;;28.20;21.08;100965.72;5091509;28;1911;-41
2021/03/21 04:47:12;;;;;;;;;;;;;;;28.19;21.23;100952.41;5077750;28;764;-45
2021/03/21 04:49:37;;;;;;;;;;;;;;;26.80;18.42;100946.78;5059376;28;799;-46
2021/03/21 04:52:07;;;;;;;;;;;;;;;25.52;19.29;100954.41;5059669;28;768;-44
2021/03/21 04:54:35;;;;;;;;;;;;;;;25.28;19.03;100941.75;5058749;28;812;-44
2021/03/21 04:57:21;;;;;;;;;;;;;;;22.74;20.21;100945.63;5058648;28;829;-37
2021/03/21 04:59:46;;;;;;;;;;;;;;;19.94;23.83;100932.97;5066808;28;963;-36
2021/03/21 05:02:28;;;;;;;;;;;;;;;22.56;21.63;100947.34;5097072;28;767;-40
2021/03/21 05:04:56;;;;;;;;;;;;;;;25.62;19.14;100945.31;5078748;28;1898;-38
2021/03/21 05:07:24;;;;;;;;;;;;;;;26.81;18.56;100951.19;5079391;28;842;-40
2021/03/21 05:09:50;;;;;;;;;;;;;;;27.16;19.10;100959.78;5089097;28;1118;-40
2021/03/21 05:12:25;;;;;;;;;;;;;;;27.37;18.85;100937.56;5058928;28;848;-39
2021/03/21 05:15:06;;;;;;;;;;;;;;;26.41;20.40;100946.59;5067170;28;988;-41
2021/03/21 05:17:41;;;;;;;;;;;;;;;26.03;20.99;100947.16;5061678;28;814;-37
2021/03/21 05:20:17;;;;;;;;;;;;;;;26.90;20.06;100963.63;5058364;28;814;-39
2021/03/21 05:22:43;;;;;;;;;;;;;;;27.20;19.39;100944.06;5076288;28;826;-41
2021/03/21 05:25:13;;;;;;;;;;;;;;;27.38;19.41;100968.09;5058807;28;1959;-39
2021/03/21 05:27:42;;;;;;;;;;;;;;;27.38;19.85;100947.31;5057442;28;844;-40
2021/03/21 05:30:11;;;;;;;;;;;;;;;27.13;20.19;100958.28;5086655;28;881;-39
2021/03/21 05:32:37;;;;;;;;;;;;;;;26.90;20.43;100958.22;5078806;28;1051;-40
2021/03/21 05:35:03;;;;;;;;;;;;;;;27.13;20.30;100968.25;5078670;28;818;-40
2021/03/21 05:37:47;;;;;;;;;;;;;;;27.41;20.09;100969.59;5096675;28;871;-40
2021/03/21 05:40:31;;;;;;;;;;;;;;;27.83;19.93;100972.84;5096920;28;755;-40
2021/03/21 05:43:08;;;;;;;;;;;;;;;27.63;19.76;100966.03;5096266;28;902;-40
2021/03/21 05:45:52;;;;;;;;;;;;;;;27.72;19.69;100971.41;5082418;28;970;-41
2021/03/21 05:48:24;;;;;;;;;;;;;;;27.43;20.07;100962.13;5096471;28;785;-40
2021/03/21 05:51:07;;;;;;;;;;;;;;;27.63;20.11;100970.59;5078453;28;1061;-39
2021/03/21 05:53:44;;;;;;;;;;;;;;;27.28;20.70;100981.81;5096780;28;800;-40
2021/03/21 05:56:28;;;;;;;;;;;;;;;27.08;20.98;100984.97;5078028;28;815;-41
2021/03/21 05:59:22;;;;;;;;;;;;;;;27.34;20.91;100991.09;5096388;28;1006;-40
2021/03/21 06:01:56;;;;;;;;;;;;;;;27.41;20.59;100992.03;5063028;28;1650;-41
2021/03/21 06:04:40;;;;;;;;;;;;;;;27.37;20.54;100993.44;5075796;28;1976;-42
2021/03/21 06:07:24;;;;;;;;;;;;;;;27.61;20.39;100980.78;5086574;28;929;-42
2021/03/21 06:09:52;;;;;;;;;;;;;;;27.35;20.70;100973.84;5100175;28;859;-42
2021/03/21 06:12:32;;;;;;;;;;;;;;;27.61;20.62;100969.97;5075491;28;525;-41
2021/03/21 06:14:58;;;;;;;;;;;;;;;27.75;20.16;100966.50;5069257;28;971;-41
2021/03/21 06:17:29;;;;;;;;;;;;;;;27.59;20.34;100966.59;5076033;28;810;-42
2021/03/21 06:19:54;;;;;;;;;;;;;;;27.26;20.80;100962.25;5075590;28;803;-40
2021/03/21 06:22:43;;;;;;;;;;;;;;;27.14;20.90;100969.94;5076693;28;854;-42
2021/03/21 06:25:14;;;;;;;;;;;;;;;27.10;21.24;100987.50;5038086;28;1910;-42
2021/03/21 06:28:02;;;;;;;;;;;;;;;27.10;21.42;100982.09;5075667;28;732;-42
2021/03/21 06:30:36;;;;;;;;;;;;;;;27.82;20.67;100990.09;5070909;28;1139;-41
2021/03/21 06:33:01;;;;;;;;;;;;;;;27.64;20.43;100983.13;5095390;28;553;-42
2021/03/21 06:35:30;;;;;;;;;;;;;;;27.48;20.50;100992.16;5096241;28;759;-42
2021/03/21 06:37:58;;;;;;;;;;;;;;;27.26;21.19;100994.66;5096470;28;783;-42
2021/03/21 06:40:41;;;;;;;;;;;;;;;26.92;21.61;100993.13;5099640;28;744;-35
2021/03/21 06:43:25;;;;;;;;;;;;;;;27.60;20.55;100979.94;5099959;28;871;-43
2021/03/21 06:46:09;;;;;;;;;;;;;;;27.70;20.54;100985.13;5083097;28;1009;-40
2021/03/21 06:48:47;;;;;;;;;;;;;;;27.67;20.71;100995.41;5079608;28;819;-46
2021/03/21 06:51:19;;;;;;;;;;;;;;;28.01;20.46;100990.59;5061476;28;859;-42
2021/03/21 06:53:44;;;;;;;;;;;;;;;28.26;20.04;100974.13;5079351;28;825;-43
2021/03/21 06:56:09;;;;;;;;;;;;;;;28.51;19.72;100987.41;5078912;28;839;-42
2021/03/21 06:58:34;;;;;;;;;;;;;;;28.43;19.88;100985.63;5079499;28;851;-41
2021/03/21 07:01:18;;;;;;;;;;;;;;;28.27;20.27;100979.34;5097299;28;959;-46
2021/03/21 07:03:49;;;;;;;;;;;;;;;27.93;20.27;100986.09;5099173;28;1898;-41
2021/03/21 07:06:33;;;;;;;;;;;;;;;27.34;21.49;100969.47;5099810;28;760;-44
2021/03/21 07:09:03;;;;;;;;;;;;;;;28.14;20.33;100963.78;5099018;28;1127;-46
2021/03/21 07:11:28;;;;;;;;;;;;;;;28.42;19.81;100963.16;5079092;28;806;-45
2021/03/21 07:14:07;;;;;;;;;;;;;;;28.08;20.08;100964.50;5087571;28;879;-46
2021/03/21 07:16:37;;;;;;;;;;;;;;;27.82;20.36;100957.66;5061357;28;736;-45
2021/03/21 07:19:20;;;;;;;;;;;;;;;28.28;20.35;100947.75;5060643;28;819;-48
2021/03/21 07:21:55;;;;;;;;;;;;;;;28.51;19.81;100955.78;5079040;28;878;-42
2021/03/21 07:24:34;;;;;;;;;;;;;;;28.24;20.06;100955.38;5079129;28;1960;-42
2021/03/21 07:27:15;;;;;;;;;;;;;;;27.90;20.26;100945.91;5061058;28;756;-42
2021/03/21 07:29:45;;;;;;;;;;;;;;;27.50;21.40;100936.94;5085253;28;974;-42
2021/03/21 07:32:16;;;;;;;;;;;;;;;28.06;20.56;100943.03;5080644;28;1216;-41
2021/03/21 07:35:00;;;;;;;;;;;;;;;28.41;20.04;100949.81;5099067;28;806;-42
2021/03/21 07:37:27;;;;;;;;;;;;;;;28.40;19.81;100953.53;5099546;28;764;-41
2021/03/21 07:39:56;;;;;;;;;;;;;;;28.31;19.79;100950.91;5080416;28;784;-41
2021/03/21 07:42:40;;;;;;;;;;;;;;;27.82;20.67;100944.13;5098997;28;834;-39
2021/03/21 07:45:27;;;;;;;;;;;;;;;27.34;21.36;100950.56;5090782;28;1906;-40
2021/03/21 07:48:08;;;;;;;;;;;;;;;27.84;20.73;100944.78;5098333;28;797;-40
2021/03/21 07:50:40;;;;;;;;;;;;;;;28.39;19.66;100951.88;5079518;28;807;-41
2021/03/21 07:53:14;;;;;;;;;;;;;;;28.36;19.78;100940.38;5098836;28;776;-40
2021/03/21 07:55:45;;;;;;;;;;;;;;;28.25;20.31;100951.66;5098258;28;767;-41
2021/03/21 07:58:26;;;;;;;;;;;;;;;28.14;20.57;100952.97;5098236;28;782;-42
2021/03/21 08:00:52;;;;;;;;;;;;;;;28.55;20.00;100962.50;5081138;28;951;-42
2021/03/21 08:03:21;;;;;;;;;;;;;;;28.50;19.80;100956.81;5060161;28;1909;-42
2021/03/21 08:05:49;;;;;;;;;;;;;;;28.07;20.57;100947.44;5060243;28;823;-42
2021/03/21 08:08:15;;;;;;;;;;;;;;;27.01;22.24;100943.47;5078111;28;751;-41
2021/03/21 08:10:41;;;;;;;;;;;;;;;27.43;21.58;100941.38;5107826;28;1111;-41
2021/03/21 08:13:12;;;;;;;;;;;;;;;28.28;20.61;100931.50;5100680;28;834;-41
2021/03/21 08:15:38;;;;;;;;;;;;;;;28.14;20.70;100925.06;5088507;28;989;-44
2021/03/21 08:18:04;;;;;;;;;;;;;;;27.87;21.12;100917.38;5076789;28;824;-41
2021/03/21 08:20:30;;;;;;;;;;;;;;;27.17;22.11;100912.03;5078090;28;763;-42
2021/03/21 08:23:14;;;;;;;;;;;;;;;27.93;21.26;100908.53;5076873;28;882;-42
2021/03/21 08:25:40;;;;;;;;;;;;;;;28.57;20.62;100914.44;5077966;28;816;-40
2021/03/21 08:28:05;;;;;;;;;;;;;;;28.22;21.05;100928.53;5077886;28;732;-40
2021/03/21 08:30:49;;;;;;;;;;;;;;;27.90;21.35;100932.41;5079737;28;1023;-40
2021/03/21 08:33:24;;;;;;;;;;;;;;;27.34;22.31;100955.97;5077472;28;930;-41
2021/03/21 08:36:06;;;;;;;;;;;;;;;28.15;20.96;100942.97;5077450;28;816;-40
2021/03/21 08:38:31;;;;;;;;;;;;;;;28.43;19.74;100936.94;5077589;28;748;-40
2021/03/21 08:41:00;;;;;;;;;;;;;;;27.94;21.11;100939.13;5077579;28;856;-40
2021/03/21 08:43:27;;;;;;;;;;;;;;;28.27;20.29;100949.59;5077226;28;1964;-39
2021/03/21 08:46:01;;;;;;;;;;;;;;;27.94;20.74;100955.34;5059458;28;979;-39
2021/03/21 08:48:36;;;;;;;;;;;;;;;28.29;20.48;100954.81;5077853;28;735;-39
2021/03/21 08:51:05;;;;;;;;;;;;;;;28.64;20.02;100959.69;5058679;28;946;-40
2021/03/21 08:53:35;;;;;;;;;;;;;;;28.29;20.66;100952.13;5077675;28;767;-40
2021/03/21 08:56:14;;;;;;;;;;;;;;;27.79;21.14;100948.06;5059524;28;868;-44
2021/03/21 08:58:39;;;;;;;;;;;;;;;27.27;22.00;100936.94;5077177;28;810;-42
2021/03/21 09:01:18;;;;;;;;;;;;;;;28.35;21.03;100938.72;5094605;28;951;-41
2021/03/21 09:03:43;;;;;;;;;;;;;;;28.37;20.88;100930.41;5097206;28;1901;-40
2021/03/21 09:06:11;;;;;;;;;;;;;;;27.98;21.30;100929.59;5097380;28;811;-41
2021/03/21 09:08:37;;;;;;;;;;;;;;;27.50;21.71;100918.03;5079160;28;735;-40
2021/03/21 09:11:03;;;;;;;;;;;;;;;28.26;20.50;100917.31;5079085;28;1127;-41
2021/03/21 09:13:37;;;;;;;;;;;;;;;28.67;20.30;100921.41;5076741;28;802;-41
2021/03/21 09:16:04;;;;;;;;;;;;;;;28.56;20.11;100925.47;5076324;28;947;-40
2021/03/21 09:18:33;;;;;;;;;;;;;;;28.30;20.36;100918.63;5076696;28;795;-40
2021/03/21 09:21:02;;;;;;;;;;;;;;;27.43;21.92;100917.06;5075976;28;849;-42
2021/03/21 09:23:36;;;;;;;;;;;;;;;28.02;20.67;100924.69;5076497;28;1902;-41
2021/03/21 09:26:03;;;;;;;;;;;;;;;28.40;19.72;100929.19;5076447;28;824;-40
2021/03/21 09:28:32;;;;;;;;;;;;;;;28.49;19.75;100930.78;5076544;28;866;-40
2021/03/21 09:30:57;;;;;;;;;;;;;;;27.99;19.62;100926.72;5061251;28;1279;-41
2021/03/21 09:33:25;;;;;;;;;;;;;;;28.19;19.94;100926.19;5108237;28;898;-43
2021/03/21 09:35:53;;;;;;;;;;;;;;;27.95;20.24;100922.72;5099140;28;809;-41
2021/03/21 09:38:19;;;;;;;;;;;;;;;27.69;20.78;100926.69;5098598;28;847;-40
2021/03/21 09:40:45;;;;;;;;;;;;;;;27.31;21.46;100921.22;5098634;28;823;-40
2021/03/21 09:43:14;;;;;;;;;;;;;;;27.70;20.88;100912.16;5117460;28;759;-39
2021/03/21 09:45:50;;;;;;;;;;;;;;;27.81;21.02;100916.25;5085206;28;1917;-39
2021/03/21 09:48:20;;;;;;;;;;;;;;;27.71;20.79;100918.41;5076231;28;859;-39
2021/03/21 09:50:51;;;;;;;;;;;;;;;27.60;21.24;100919.63;5075085;28;871;-41
2021/03/21 09:53:35;;;;;;;;;;;;;;;27.05;21.75;100917.00;5082995;28;871;-41
2021/03/21 09:56:04;;;;;;;;;;;;;;;27.41;21.49;100919.09;5117055;28;877;-42
2021/03/21 09:58:49;;;;;;;;;;;;;;;27.29;21.68;100915.16;5098553;28;767;-41
2021/03/21 10:01:14;;;;;;;;;;;;;;;27.31;21.11;100908.53;5075725;28;1589;-43
2021/03/21 10:03:39;;;;;;;;;;;;;;;27.67;20.53;100909.78;5075993;28;1961;-43
2021/03/21 10:06:05;;;;;;;;;;;;;;;27.63;20.77;100903.91;5058375;28;755;-43
2021/03/21 10:08:39;;;;;;;;;;;;;;;26.49;22.34;100913.38;5075736;28;756;-43
2021/03/21 10:11:08;;;;;;;;;;;;;;;26.60;22.25;100901.34;5112869;28;1299;-43
2021/03/21 10:13:33;;;;;;;;;;;;;;;27.01;21.82;100911.94;5101683;28;843;-38
2021/03/21 10:16:09;;;;;;;;;;;;;;;27.49;21.33;100910.94;5087001;28;1072;-42
2021/03/21 10:18:43;;;;;;;;;;;;;;;27.59;21.04;100918.78;5082518;28;847;-41
2021/03/21 10:21:09;;;;;;;;;;;;;;;27.21;21.76;100911.47;5082455;28;759;-45
2021/03/21 10:24:00;;;;;;;;;;;;;;;26.35;22.74;100925.72;5064284;28;1902;-43
2021/03/21 10:26:26;;;;;;;;;;;;;;;26.60;22.73;100912.16;5082282;28;883;-43
2021/03/21 10:28:58;;;;;;;;;;;;;;;26.64;22.66;100918.88;5082364;28;800;-43
2021/03/21 10:31:27;;;;;;;;;;;;;;;26.68;22.66;100911.25;5082012;28;1284;-41
2021/03/21 10:33:56;;;;;;;;;;;;;;;26.68;22.58;100912.09;5064190;28;742;-41
2021/03/21 10:36:41;;;;;;;;;;;;;;;27.61;21.38;100915.91;5082364;28;858;-40
2021/03/21 10:39:10;;;;;;;;;;;;;;;27.70;20.96;100900.47;5081365;28;1643;-42
2021/03/21 10:41:53;;;;;;;;;;;;;;;27.62;21.25;100902.22;5081625;28;784;-41
2021/03/21 10:44:20;;;;;;;;;;;;;;;27.17;22.01;100885.03;5085248;28;1914;-41
2021/03/21 10:46:49;;;;;;;;;;;;;;;27.39;21.92;100883.34;5103113;28;745;-45
2021/03/21 10:49:33;;;;;;;;;;;;;;;27.78;21.54;100886.06;5102751;28;756;-40
2021/03/21 10:52:06;;;;;;;;;;;;;;;27.90;21.18;100878.31;5102121;28;846;-42
2021/03/21 10:54:31;;;;;;;;;;;;;;;27.08;22.53;100876.13;5102861;28;913;-40
2021/03/21 10:57:16;;;;;;;;;;;;;;;28.01;21.50;100874.34;5084082;28;832;-41
2021/03/21 11:00:00;;;;;;;;;;;;;;;28.35;20.77;100854.00;5094140;28;1198;-39
2021/03/21 11:02:25;;;;;;;;;;;;;;;27.68;21.47;100853.84;5064486;28;831;-41
2021/03/21 11:05:13;;;;;;;;;;;;;;;27.52;21.29;100844.91;5063458;28;1890;-41
2021/03/21 11:07:38;;;;;;;;;;;;;;;27.33;22.13;100835.44;5080871;28;1319;-40
2021/03/21 11:10:06;;;;;;;;;;;;;;;26.81;22.52;100835.13;5083757;28;1085;-40
2021/03/21 11:12:38;;;;;;;;;;;;;;;27.05;22.11;100836.84;5122294;28;814;-40
2021/03/21 11:15:17;;;;;;;;;;;;;;;27.71;21.69;100835.44;5102056;28;957;-38
2021/03/21 11:17:42;;;;;;;;;;;;;;;27.77;21.13;100833.88;5082112;28;806;-40
2021/03/21 11:20:34;;;;;;;;;;;;;;;27.59;21.13;100824.19;5063433;28;1088;-40
2021/03/21 11:23:06;;;;;;;;;;;;;;;27.25;21.74;100817.44;5079013;28;2317;-41
2021/03/21 11:25:33;;;;;;;;;;;;;;;27.03;22.62;100814.59;5061359;28;1901;-42
2021/03/21 11:27:58;;;;;;;;;;;;;;;27.34;21.80;100805.53;5079485;28;735;-42
2021/03/21 11:30:28;;;;;;;;;;;;;;;27.59;21.46;100809.88;5081408;28;1051;-40
2021/03/21 11:32:56;;;;;;;;;;;;;;;27.44;21.69;100813.41;5099160;28;1553;-41
2021/03/21 11:35:22;;;;;;;;;;;;;;;27.32;21.45;100807.59;5081059;28;912;-41
2021/03/21 11:37:48;;;;;;;;;;;;;;;26.71;22.53;100806.50;5098518;28;759;-41
2021/03/21 11:40:13;;;;;;;;;;;;;;;26.69;22.77;100797.78;5098887;28;830;-40
2021/03/21 11:42:39;;;;;;;;;;;;;;;26.98;22.28;100798.91;5098992;28;866;-40
2021/03/21 11:45:22;;;;;;;;;;;;;;;27.43;21.64;100798.19;5087942;28;1955;-42
2021/03/21 11:47:48;;;;;;;;;;;;;;;27.56;21.58;100804.84;5078194;28;791;-41
2021/03/21 11:50:23;;;;;;;;;;;;;;;27.45;21.81;100795.31;5060626;28;1138;-41
2021/03/21 11:52:48;;;;;;;;;;;;;;;27.10;22.14;100798.50;5077897;28;763;-41
2021/03/21 11:55:17;;;;;;;;;;;;;;;27.32;22.15;100791.41;5078084;28;716;-40
2021/03/21 11:57:48;;;;;;;;;;;;;;;27.22;22.39;100802.47;5077852;28;851;-40
2021/03/21 12:00:33;;;;;;;;;;;;;;;27.77;21.36;100792.47;5071330;28;935;-40
2021/03/21 12:03:06;;;;;;;;;;;;;;;28.11;21.28;100788.38;5062552;28;892;-41
2021/03/21 12:05:41;;;;;;;;;;;;;;;27.80;21.62;100790.25;5060386;28;1965;-41
2021/03/21 12:08:12;;;;;;;;;;;;;;;27.31;22.50;100791.56;5078060;28;834;-40
2021/03/21 12:10:41;;;;;;;;;;;;;;;28.09;21.23;100783.13;5092478;28;1072;-40
2021/03/21 12:13:25;;;;;;;;;;;;;;;28.24;20.87;100788.50;5079637;28;858;-40
2021/03/21 12:15:54;;;;;;;;;;;;;;;27.61;21.44;100778.94;5080946;28;939;-40
2021/03/21 12:18:20;;;;;;;;;;;;;;;27.54;21.59;100785.25;5077522;28;813;-40
2021/03/21 12:20:49;;;;;;;;;;;;;;;27.09;22.16;100781.44;5058864;28;879;-41
2021/03/21 12:23:25;;;;;;;;;;;;;;;27.27;22.39;100777.59;5078027;28;752;-40
2021/03/21 12:26:03;;;;;;;;;;;;;;;27.87;21.54;100771.41;5078173;28;759;-39
2021/03/21 12:28:29;;;;;;;;;;;;;;;27.78;21.21;100772.53;5077312;28;815;-40
2021/03/21 12:30:58;;;;;;;;;;;;;;;27.63;21.33;100771.47;5094427;28;1270;-42
2021/03/21 12:33:28;;;;;;;;;;;;;;;27.62;21.85;100760.84;5074478;28;890;-41
2021/03/21 12:36:03;;;;;;;;;;;;;;;27.54;21.68;100747.44;5076880;28;732;-40
2021/03/21 12:38:35;;;;;;;;;;;;;;;27.71;21.64;100751.66;5077990;28;827;-40
2021/03/21 12:41:19;;;;;;;;;;;;;;;28.33;20.99;100745.13;5077474;28;798;-41
2021/03/21 12:43:44;;;;;;;;;;;;;;;28.04;21.23;100744.16;5076982;28;1949;-40
2021/03/21 12:46:14;;;;;;;;;;;;;;;27.69;21.38;100745.63;5096490;28;869;-38
2021/03/21 12:48:49;;;;;;;;;;;;;;;27.16;22.35;100740.25;5097533;28;752;-41
2021/03/21 12:51:28;;;;;;;;;;;;;;;26.65;22.68;100739.78;5097242;28;767;-42
2021/03/21 12:53:53;;;;;;;;;;;;;;;26.92;22.61;100737.53;5096905;28;845;-41
2021/03/21 12:56:18;;;;;;;;;;;;;;;26.98;22.34;100734.09;5097770;28;856;-42
2021/03/21 12:58:44;;;;;;;;;;;;;;;27.66;21.42;100726.19;5097175;28;810;-41
2021/03/21 13:01:09;;;;;;;;;;;;;;;27.68;21.54;100721.41;5078217;28;938;-40
2021/03/21 13:03:35;;;;;;;;;;;;;;;27.50;21.73;100720.78;5076818;28;1893;-42
2021/03/21 13:06:01;;;;;;;;;;;;;;;27.78;21.42;100713.09;5076080;28;868;-41
2021/03/21 13:08:27;;;;;;;;;;;;;;;27.89;21.48;100725.25;5077219;28;810;-41
2021/03/21 13:10:52;;;;;;;;;;;;;;;28.21;21.05;100723.16;5110124;28;1122;-41
2021/03/21 13:13:18;;;;;;;;;;;;;;;28.19;20.50;100719.78;5117170;28;926;-40
2021/03/21 13:15:43;;;;;;;;;;;;;;;27.68;21.54;100719.59;5086170;28;950;-41